createdAt,value
2019-01-02T07:21:01.033Z,4.22
2019-01-02T07:21:58.210Z,4.24
2019-01-02T07:22:58.198Z,4.43
2019-01-02T07:23:58.212Z,4.59
2019-01-02T07:24:58.175Z,4.86
2019-01-02T07:25:58.162Z,4.88
2019-01-02T07:26:58.154Z,4.80
2019-01-02T07:27:58.141Z,4.76
2019-01-02T07:28:58.129Z,4.69
2019-01-02T07:29:58.137Z,4.52
2019-01-02T07:30:58.106Z,4.43
2019-01-02T07:31:58.096Z,4.36
2019-01-02T07:32:58.083Z,4.42
2019-01-02T07:33:58.072Z,4.24
2019-01-02T07:34:58.085Z,4.28
2019-01-02T07:35:58.049Z,4.36
2019-01-02T07:36:58.037Z,4.34
2019-01-02T07:37:58.027Z,4.19
2019-01-02T07:38:58.015Z,4.14
2019-01-02T07:39:58.005Z,4.24
2019-01-02T07:40:58.010Z,4.25
2019-01-02T07:41:57.982Z,4.12
2019-01-02T07:42:57.970Z,4.29
2019-01-02T07:43:57.959Z,4.29
2019-01-02T07:44:57.947Z,4.24
2019-01-02T07:45:57.955Z,4.24
2019-01-02T07:46:57.925Z,4.29
2019-01-02T07:47:57.913Z,4.16
2019-01-02T07:48:57.904Z,4.18
2019-01-02T07:49:57.892Z,4.18
2019-01-02T07:51:00.340Z,4.24
2019-01-02T07:51:57.867Z,4.19
2019-01-02T07:52:57.858Z,4.21
2019-01-02T07:53:57.846Z,4.21
2019-01-02T07:54:57.834Z,4.19
2019-01-02T07:55:57.841Z,4.24
2019-01-02T07:56:57.811Z,4.18
2019-01-02T07:57:57.799Z,4.19
2019-01-02T07:58:57.788Z,4.21
2019-01-02T07:59:57.776Z,4.21
2019-01-02T08:00:57.783Z,4.24
2019-01-02T08:01:57.754Z,4.24
2019-01-02T08:02:57.742Z,4.21
2019-01-02T08:03:57.730Z,4.26
2019-01-02T08:04:57.719Z,4.18
2019-01-02T08:05:57.815Z,4.12
2019-01-02T08:06:57.696Z,4.14
2019-01-02T08:07:57.684Z,4.19
2019-01-02T08:08:57.674Z,4.21
2019-01-02T08:09:57.663Z,4.24
2019-01-02T08:10:57.674Z,4.21
2019-01-02T08:11:57.643Z,4.24
2019-01-02T08:12:57.630Z,4.22
2019-01-02T08:13:57.623Z,4.25
2019-01-02T08:15:02.991Z,4.34
2019-01-02T08:15:58.612Z,4.26
2019-01-02T08:16:57.582Z,4.34
2019-01-02T08:17:57.570Z,4.29
2019-01-02T08:18:57.559Z,4.24
2019-01-02T08:19:57.549Z,4.24
2019-01-02T08:20:57.554Z,4.25
2019-01-02T08:21:57.525Z,4.26
2019-01-02T08:22:57.516Z,4.26
2019-01-02T08:23:57.502Z,4.24
2019-01-02T08:24:57.493Z,4.25
2019-01-02T08:25:57.500Z,4.29
2019-01-02T08:26:57.468Z,4.26
2019-01-02T08:27:57.459Z,4.37
2019-01-02T08:28:57.445Z,4.33
2019-01-02T08:29:57.435Z,4.34
2019-01-02T08:30:57.441Z,4.40
2019-01-02T08:31:57.411Z,4.37
2019-01-02T08:32:57.398Z,4.32
2019-01-02T08:33:57.390Z,4.40
2019-01-02T08:34:57.377Z,4.47
2019-01-02T08:35:57.389Z,4.50
2019-01-02T08:36:57.354Z,4.50
2019-01-02T08:37:57.344Z,4.55
2019-01-02T08:38:57.335Z,4.55
2019-01-02T08:39:57.319Z,4.52
2019-01-02T08:40:57.325Z,4.64
2019-01-02T08:41:57.299Z,4.67
2019-01-02T08:42:57.287Z,4.59
2019-01-02T08:43:57.275Z,4.64
2019-01-02T08:44:57.265Z,4.65
2019-01-02T08:45:57.273Z,4.62
2019-01-02T08:46:57.244Z,4.72
2019-01-02T08:47:57.230Z,4.72
2019-01-02T08:48:57.219Z,4.65
2019-01-02T08:49:57.208Z,4.75
2019-01-02T08:50:57.217Z,4.79
2019-01-02T08:51:57.184Z,4.64
2019-01-02T08:52:57.172Z,4.73
2019-01-02T08:53:57.162Z,4.73
2019-01-02T08:54:57.151Z,4.70
2019-01-02T08:55:57.163Z,4.80
2019-01-02T08:56:57.128Z,4.79
2019-01-02T08:57:57.117Z,4.89
2019-01-02T08:58:57.109Z,4.88
2019-01-02T08:59:57.094Z,4.89
2019-01-02T09:00:57.083Z,4.84
2019-01-02T09:01:57.092Z,4.88
2019-01-02T09:02:57.062Z,4.88
2019-01-02T09:03:57.051Z,4.99
2019-01-02T09:04:57.041Z,4.96
2019-01-02T09:05:57.029Z,5.07
2019-01-02T09:06:57.035Z,4.99
2019-01-02T09:07:57.006Z,4.98
2019-01-02T09:08:56.994Z,5.12
2019-01-02T09:09:56.982Z,5.12
2019-01-02T09:10:56.971Z,5.04
2019-01-02T09:11:56.982Z,5.16
2019-01-02T09:12:56.948Z,5.14
2019-01-02T09:13:56.939Z,5.16
2019-01-02T09:14:56.925Z,5.14
2019-01-02T09:15:56.915Z,5.38
2019-01-02T09:16:56.900Z,5.38
2019-01-02T09:17:56.909Z,5.73
2019-01-02T09:18:56.880Z,6.13
2019-01-02T09:19:56.865Z,5.91
2019-01-02T09:20:56.855Z,5.70
2019-01-02T09:21:56.843Z,5.53
2019-01-02T09:22:56.848Z,5.35
2019-01-02T09:23:56.822Z,5.32
2019-01-02T09:24:56.806Z,5.23
2019-01-02T09:25:56.796Z,5.22
2019-01-02T09:26:56.783Z,5.23
2019-01-02T09:27:56.790Z,5.25
2019-01-02T09:28:56.763Z,5.22
2019-01-02T09:29:56.750Z,5.20
2019-01-02T09:30:56.736Z,5.32
2019-01-02T09:31:56.725Z,5.17
2019-01-02T09:32:56.766Z,5.38
2019-01-02T09:33:56.704Z,5.32
2019-01-02T09:34:56.690Z,5.22
2019-01-02T09:35:56.702Z,5.30
2019-01-02T09:36:56.666Z,5.22
2019-01-02T09:37:56.677Z,5.23
2019-01-02T09:38:56.643Z,5.17
2019-01-02T09:39:56.633Z,5.23
2019-01-02T09:40:56.623Z,5.23
2019-01-02T09:41:56.607Z,5.20
2019-01-02T09:42:56.614Z,5.20
2019-01-02T09:43:56.585Z,5.16
2019-01-02T09:44:56.575Z,5.20
2019-01-02T09:45:56.561Z,5.17
2019-01-02T09:46:56.549Z,5.16
2019-01-02T09:47:56.574Z,5.19
2019-01-02T09:48:56.526Z,5.34
2019-01-02T09:49:56.517Z,5.19
2019-01-02T09:50:56.503Z,5.34
2019-01-02T09:51:56.491Z,5.31
2019-01-02T09:52:56.501Z,5.35
2019-01-02T09:53:56.469Z,5.43
2019-01-02T09:55:01.341Z,5.57
2019-01-02T09:55:57.443Z,5.56
2019-01-02T09:56:56.431Z,5.82
2019-01-02T09:57:56.420Z,5.78
2019-01-02T09:58:56.427Z,5.82
2019-01-02T09:59:56.397Z,6.09
2019-01-02T10:00:56.386Z,5.96
2019-01-02T10:01:56.375Z,6.10
2019-01-02T10:02:56.361Z,6.28
2019-01-02T10:03:56.368Z,6.41
2019-01-02T10:04:56.342Z,6.51
2019-01-02T10:05:56.329Z,6.87
2019-01-02T10:06:56.315Z,6.97
2019-01-02T10:07:56.304Z,7.02
2019-01-02T10:08:56.312Z,6.95
2019-01-02T10:09:56.282Z,6.98
2019-01-02T10:10:56.271Z,6.90
2019-01-02T10:11:56.259Z,6.89
2019-01-02T10:12:56.247Z,6.83
2019-01-02T10:13:56.258Z,6.73
2019-01-02T10:14:56.225Z,6.71
2019-01-02T10:15:56.213Z,6.62
2019-01-02T10:16:56.205Z,6.59
2019-01-02T10:17:56.190Z,6.46
2019-01-02T10:18:56.180Z,6.47
2019-01-02T10:19:56.187Z,6.44
2019-01-02T10:20:56.156Z,6.47
2019-01-02T10:21:56.145Z,6.47
2019-01-02T10:22:56.133Z,6.46
2019-01-02T10:23:56.122Z,6.48
2019-01-02T10:24:56.131Z,6.41
2019-01-02T10:25:56.098Z,6.35
2019-01-02T10:26:56.088Z,7.17
2019-01-02T10:27:56.078Z,8.62
2019-01-02T10:28:56.065Z,9.09
2019-01-02T10:29:56.072Z,9.76
2019-01-02T10:30:56.041Z,9.53
2019-01-02T10:31:56.029Z,9.39
2019-01-02T10:32:56.020Z,9.66
2019-01-02T10:33:56.008Z,9.73
2019-01-02T10:34:56.017Z,10.52
2019-01-02T10:35:55.986Z,10.33
2019-01-02T10:36:55.972Z,10.74
2019-01-02T10:37:55.960Z,10.33
2019-01-02T10:38:55.951Z,11.19
2019-01-02T10:39:55.956Z,11.54
2019-01-02T10:40:55.930Z,12.02
2019-01-02T10:41:55.914Z,12.54
2019-01-02T10:42:55.903Z,13.04
2019-01-02T10:43:55.893Z,12.89
2019-01-02T10:44:55.922Z,12.45
2019-01-02T10:45:55.869Z,12.29
2019-01-02T10:46:55.858Z,12.70
2019-01-02T10:47:55.847Z,13.00
2019-01-02T10:48:55.835Z,13.40
2019-01-02T10:49:55.826Z,13.36
2019-01-02T10:50:55.844Z,13.12
2019-01-02T10:51:55.801Z,13.14
2019-01-02T10:52:55.789Z,12.88
2019-01-02T10:53:55.775Z,12.95
2019-01-02T10:54:55.787Z,13.33
2019-01-02T10:55:55.755Z,12.96
2019-01-02T10:56:55.741Z,13.21
2019-01-02T10:57:55.730Z,13.06
2019-01-02T10:58:55.718Z,12.85
2019-01-02T10:59:55.705Z,13.09
2019-01-02T11:00:55.713Z,13.43
2019-01-02T11:01:55.682Z,13.29
2019-01-02T11:02:55.671Z,13.58
2019-01-02T11:03:55.658Z,13.25
2019-01-02T11:04:55.647Z,13.36
2019-01-02T11:05:55.654Z,13.33
2019-01-02T11:06:55.624Z,13.00
2019-01-02T11:07:55.615Z,12.97
2019-01-02T11:08:55.612Z,12.49
2019-01-02T11:09:55.590Z,12.26
2019-01-02T11:10:55.599Z,12.11
2019-01-02T11:11:55.568Z,11.72
2019-01-02T11:12:55.556Z,10.92
2019-01-02T11:13:55.544Z,10.25
2019-01-02T11:14:55.533Z,9.75
2019-01-02T11:15:55.545Z,9.50
2019-01-02T11:16:55.512Z,9.25
2019-01-02T11:17:55.497Z,9.10
2019-01-02T11:18:55.488Z,9.10
2019-01-02T11:19:55.478Z,9.30
2019-01-02T11:20:55.463Z,9.46
2019-01-02T11:21:55.472Z,9.53
2019-01-02T11:22:55.440Z,9.52
2019-01-02T11:23:55.429Z,10.63
2019-01-02T11:24:55.417Z,11.24
2019-01-02T11:25:55.404Z,10.94
2019-01-02T11:26:55.412Z,10.65
2019-01-02T11:27:55.381Z,9.94
2019-01-02T11:28:55.372Z,9.45
2019-01-02T11:29:55.359Z,9.25
2019-01-02T11:30:55.347Z,9.28
2019-01-02T11:31:55.357Z,8.94
2019-01-02T11:32:55.324Z,8.93
2019-01-02T11:33:55.318Z,9.75
2019-01-02T11:34:55.302Z,9.97
2019-01-02T11:35:55.292Z,10.46
2019-01-02T11:36:55.303Z,10.95
2019-01-02T11:37:55.267Z,10.83
2019-01-02T11:38:55.256Z,11.29
2019-01-02T11:39:55.247Z,11.27
2019-01-02T11:40:55.233Z,10.10
2019-01-02T11:41:55.222Z,9.35
2019-01-02T11:42:55.229Z,8.72
2019-01-02T11:43:55.201Z,8.48
2019-01-02T11:44:55.188Z,8.44
2019-01-02T11:45:55.176Z,8.51
2019-01-02T11:46:55.167Z,8.47
2019-01-02T11:47:55.175Z,9.40
2019-01-02T11:48:55.142Z,9.09
2019-01-02T11:49:55.131Z,9.30
2019-01-02T11:50:55.117Z,9.20
2019-01-02T11:51:55.106Z,8.93
2019-01-02T11:52:55.113Z,8.81
2019-01-02T11:53:55.085Z,8.76
2019-01-02T11:54:55.072Z,8.96
2019-01-02T11:55:55.068Z,9.48
2019-01-02T11:56:55.048Z,10.32
2019-01-02T11:57:55.054Z,11.09
2019-01-02T11:58:55.025Z,10.80
2019-01-02T11:59:55.014Z,11.07
2019-01-02T12:00:55.003Z,11.21
2019-01-02T12:01:54.995Z,10.80
2019-01-02T12:02:54.998Z,10.89
2019-01-02T12:03:54.968Z,10.81
2019-01-02T12:04:54.958Z,10.71
2019-01-02T12:05:54.945Z,10.06
2019-01-02T12:06:54.933Z,9.52
2019-01-02T12:07:54.946Z,8.99
2019-01-02T12:08:54.910Z,8.81
2019-01-02T12:09:54.899Z,8.51
2019-01-02T12:10:54.887Z,8.33
2019-01-02T12:11:54.876Z,8.22
2019-01-02T12:12:54.864Z,7.94
2019-01-02T12:13:54.872Z,7.84
2019-01-02T12:14:54.841Z,7.82
2019-01-02T12:15:54.829Z,7.67
2019-01-02T12:16:54.818Z,7.62
2019-01-02T12:17:54.806Z,7.45
2019-01-02T12:18:54.815Z,7.40
2019-01-02T12:19:54.782Z,7.55
2019-01-02T12:20:54.773Z,7.55
2019-01-02T12:21:54.763Z,7.59
2019-01-02T12:22:54.750Z,8.30
2019-01-02T12:23:54.778Z,9.60
2019-01-02T12:24:54.750Z,10.65
2019-01-02T12:25:54.714Z,11.34
2019-01-02T12:26:54.701Z,11.86
2019-01-02T12:27:54.691Z,12.34
2019-01-02T12:28:54.679Z,12.34
2019-01-02T12:29:54.685Z,10.98
2019-01-02T12:30:54.654Z,9.96
2019-01-02T12:31:54.642Z,9.49
2019-01-02T12:32:54.631Z,8.88
2019-01-02T12:33:54.619Z,9.12
2019-01-02T12:34:54.627Z,10.10
2019-01-02T12:35:54.595Z,10.91
2019-01-02T12:36:54.586Z,11.14
2019-01-02T12:37:54.575Z,11.46
2019-01-02T12:38:54.562Z,11.59
2019-01-02T12:39:54.570Z,11.86
2019-01-02T12:40:54.539Z,12.33
2019-01-02T12:41:54.529Z,12.54
2019-01-02T12:42:54.517Z,12.45
2019-01-02T12:43:54.507Z,11.21
2019-01-02T12:44:54.513Z,11.19
2019-01-02T12:45:54.482Z,11.54
2019-01-02T12:46:54.471Z,10.51
2019-01-02T12:47:54.459Z,9.76
2019-01-02T12:48:54.449Z,9.49
2019-01-02T12:49:54.454Z,9.10
2019-01-02T12:50:54.426Z,8.71
2019-01-02T12:51:54.413Z,8.37
2019-01-02T12:52:54.401Z,8.17
2019-01-02T12:53:54.391Z,8.00
2019-01-02T12:54:54.403Z,7.93
2019-01-02T12:55:54.368Z,7.92
2019-01-02T12:56:54.356Z,7.84
2019-01-02T12:57:54.344Z,7.93
2019-01-02T12:58:54.332Z,7.97
2019-01-02T12:59:54.339Z,7.81
2019-01-02T13:00:54.309Z,7.74
2019-01-02T13:01:54.298Z,7.69
2019-01-02T13:02:54.290Z,7.71
2019-01-02T13:03:54.273Z,7.50
2019-01-02T13:04:54.286Z,7.71
2019-01-02T13:05:54.254Z,7.72
2019-01-02T13:06:54.240Z,7.60
2019-01-02T13:07:54.228Z,7.71
2019-01-02T13:08:54.219Z,8.68
2019-01-02T13:09:54.206Z,8.53
2019-01-02T13:10:54.211Z,8.78
2019-01-02T13:11:54.181Z,9.64
2019-01-02T13:12:54.170Z,9.91
2019-01-02T13:13:54.159Z,10.15
2019-01-02T13:14:54.148Z,10.40
2019-01-02T13:15:54.158Z,10.34
2019-01-02T13:16:54.125Z,10.01
2019-01-02T13:17:54.113Z,10.09
2019-01-02T13:18:54.101Z,10.51
2019-01-02T13:19:54.089Z,10.89
2019-01-02T13:20:54.096Z,11.14
2019-01-02T13:21:54.068Z,11.36
2019-01-02T13:22:54.059Z,10.68
2019-01-02T13:23:54.043Z,9.68
2019-01-02T13:24:54.033Z,9.88
2019-01-02T13:25:54.060Z,10.22
2019-01-02T13:26:54.011Z,10.65
2019-01-02T13:27:53.997Z,9.94
2019-01-02T13:28:53.985Z,9.43
2019-01-02T13:29:53.973Z,8.97
2019-01-02T13:30:53.961Z,8.94
2019-01-02T13:31:53.969Z,9.28
2019-01-02T13:32:53.938Z,8.69
2019-01-02T13:33:53.926Z,8.39
2019-01-02T13:34:53.916Z,8.33
2019-01-02T13:35:53.902Z,8.28
2019-01-02T13:36:53.910Z,8.12
2019-01-02T13:37:53.880Z,7.90
2019-01-02T13:38:53.867Z,7.99
2019-01-02T13:39:53.857Z,8.69
2019-01-02T13:40:53.868Z,8.65
2019-01-02T13:41:53.855Z,8.51
2019-01-02T13:42:53.832Z,9.18
2019-01-02T13:43:53.810Z,9.25
2019-01-02T13:44:53.799Z,9.21
2019-01-02T13:45:53.788Z,9.30
2019-01-02T13:46:53.794Z,8.94
2019-01-02T13:47:53.770Z,8.37
2019-01-02T13:48:53.754Z,8.08
2019-01-02T13:49:53.741Z,7.92
2019-01-02T13:50:53.731Z,7.77
2019-01-02T13:51:53.737Z,7.77
2019-01-02T13:52:53.707Z,7.69
2019-01-02T13:53:53.695Z,7.62
2019-01-02T13:54:53.684Z,7.77
2019-01-02T13:55:53.672Z,7.96
2019-01-02T13:56:53.682Z,7.90
2019-01-02T13:57:53.651Z,7.99
2019-01-02T13:58:53.640Z,7.96
2019-01-02T13:59:53.627Z,7.92
2019-01-02T14:00:53.616Z,7.78
2019-01-02T14:01:53.603Z,7.69
2019-01-02T14:02:53.617Z,7.63
2019-01-02T14:03:53.586Z,7.66
2019-01-02T14:04:53.568Z,7.56
2019-01-02T14:05:53.561Z,7.63
2019-01-02T14:06:53.547Z,7.49
2019-01-02T14:07:53.575Z,7.41
2019-01-02T14:08:53.524Z,7.34
2019-01-02T14:09:53.512Z,7.26
2019-01-02T14:10:53.502Z,7.35
2019-01-02T14:11:53.492Z,7.23
2019-01-02T14:12:53.479Z,7.23
2019-01-02T14:13:53.487Z,7.09
2019-01-02T14:14:53.461Z,7.01
2019-01-02T14:15:53.446Z,7.02
2019-01-02T14:16:53.433Z,6.80
2019-01-02T14:17:53.423Z,6.79
2019-01-02T14:18:53.429Z,7.34
2019-01-02T14:19:53.400Z,7.31
2019-01-02T14:20:53.387Z,6.94
2019-01-02T14:21:53.375Z,6.76
2019-01-02T14:22:53.456Z,7.09
2019-01-02T14:24:00.402Z,7.40
2019-01-02T14:24:53.341Z,7.59
2019-01-02T14:25:53.327Z,7.96
2019-01-02T14:26:53.316Z,8.07
2019-01-02T14:27:53.304Z,7.67
2019-01-02T14:28:53.313Z,7.75
2019-01-02T14:29:53.283Z,7.63
2019-01-02T14:30:53.276Z,7.82
2019-01-02T14:31:53.261Z,7.89
2019-01-02T14:32:53.246Z,7.93
2019-01-02T14:33:53.260Z,7.92
2019-01-02T14:34:53.224Z,7.93
2019-01-02T14:35:53.211Z,7.67
2019-01-02T14:36:53.201Z,7.44
2019-01-02T14:37:53.190Z,7.62
2019-01-02T14:38:53.216Z,7.58
2019-01-02T14:39:53.163Z,7.72
2019-01-02T14:40:53.152Z,7.74
2019-01-02T14:41:53.142Z,7.63
2019-01-02T14:42:53.140Z,7.38
2019-01-02T14:43:53.115Z,7.20
2019-01-02T14:44:53.124Z,7.01
2019-01-02T14:45:53.152Z,6.79
2019-01-02T14:46:53.087Z,6.58
2019-01-02T14:47:53.072Z,6.46
2019-01-02T14:48:53.074Z,6.44
2019-01-02T14:49:53.077Z,6.46
2019-01-02T14:50:53.035Z,6.35
2019-01-02T14:51:53.020Z,6.35
2019-01-02T14:52:53.010Z,6.21
2019-01-02T14:53:53.003Z,6.21
2019-01-02T14:54:52.984Z,6.13
2019-01-02T14:55:53.010Z,6.16
2019-01-02T14:56:52.966Z,6.04
2019-01-02T14:57:52.955Z,6.06
2019-01-02T14:58:52.939Z,6.00
2019-01-02T14:59:52.926Z,6.04
2019-01-02T15:00:52.934Z,5.85
2019-01-02T15:01:52.909Z,5.89
2019-01-02T15:02:52.893Z,5.78
2019-01-02T15:03:52.883Z,5.74
2019-01-02T15:04:52.869Z,5.67
2019-01-02T15:05:52.883Z,5.63
2019-01-02T15:06:52.847Z,5.60
2019-01-02T15:07:52.865Z,5.63
2019-01-02T15:08:52.826Z,5.56
2019-01-02T15:09:52.810Z,5.60
2019-01-02T15:10:53.004Z,5.53
2019-01-02T15:11:52.810Z,5.46
2019-01-02T15:12:52.774Z,5.45
2019-01-02T15:13:52.763Z,5.45
2019-01-02T15:14:52.754Z,5.38
2019-01-02T15:15:52.768Z,5.43
2019-01-02T15:16:52.733Z,5.30
2019-01-02T15:17:52.728Z,5.17
2019-01-02T15:18:52.710Z,5.22
2019-01-02T15:19:52.698Z,5.20
2019-01-02T15:20:52.691Z,5.13
2019-01-02T15:21:52.701Z,5.14
2019-01-02T15:22:52.662Z,5.14
2019-01-02T15:23:52.655Z,5.16
2019-01-02T15:24:52.640Z,5.02
2019-01-02T15:25:52.628Z,5.01
2019-01-02T15:26:52.634Z,5.01
2019-01-02T15:27:52.608Z,4.96
2019-01-02T15:28:52.595Z,4.94
2019-01-02T15:29:52.587Z,4.83
2019-01-02T15:30:52.573Z,4.80
2019-01-02T15:31:52.587Z,4.73
2019-01-02T15:32:52.550Z,4.62
2019-01-02T15:33:52.537Z,4.62
2019-01-02T15:34:52.528Z,4.70
2019-01-02T15:35:52.583Z,4.64
2019-01-02T15:36:52.531Z,4.51
2019-01-02T15:37:52.497Z,4.46
2019-01-02T15:38:52.486Z,4.47
2019-01-02T15:39:52.472Z,4.34
2019-01-02T15:40:52.467Z,4.37
2019-01-02T15:41:52.477Z,4.33
2019-01-02T15:42:52.437Z,4.42
2019-01-02T15:43:52.425Z,4.29
2019-01-02T15:44:52.431Z,4.39
2019-01-02T15:45:52.403Z,4.28
2019-01-02T15:46:52.414Z,4.40
2019-01-02T15:47:52.415Z,4.19
2019-01-02T15:48:52.373Z,4.22
2019-01-02T15:49:52.364Z,4.25
2019-01-02T15:50:52.348Z,4.12
2019-01-02T15:51:52.358Z,4.14
2019-01-02T15:52:52.325Z,4.04
2019-01-02T15:53:52.316Z,4.08
2019-01-02T15:54:52.304Z,3.92
2019-01-02T15:55:52.295Z,3.92
2019-01-02T15:56:52.318Z,3.94
2019-01-02T15:57:52.277Z,3.86
2019-01-02T15:58:52.259Z,3.85
2019-01-02T15:59:52.244Z,3.86
2019-01-02T16:00:52.329Z,3.75
2019-01-02T16:01:52.246Z,3.71
2019-01-02T16:02:52.218Z,3.78
2019-01-02T16:03:52.200Z,3.68
2019-01-02T16:04:52.192Z,3.68
2019-01-02T16:05:52.185Z,3.64
2019-01-02T16:06:52.172Z,3.62
2019-01-02T16:07:52.204Z,3.57
2019-01-02T16:08:52.171Z,3.54
2019-01-02T16:09:52.140Z,3.50
2019-01-02T16:10:52.126Z,3.40
2019-01-02T16:11:52.110Z,3.39
2019-01-02T16:12:52.124Z,3.47
2019-01-02T16:13:52.091Z,3.34
2019-01-02T16:14:52.094Z,3.42
2019-01-02T16:15:52.067Z,3.43
2019-01-02T16:16:52.060Z,3.31
2019-01-02T16:17:52.130Z,3.25
2019-01-02T16:18:52.038Z,3.39
2019-01-02T16:19:52.026Z,3.33
2019-01-02T16:20:52.009Z,3.28
2019-01-02T16:21:51.997Z,3.18
2019-01-02T16:22:51.990Z,3.20
2019-01-02T16:23:51.993Z,3.18
2019-01-02T16:24:51.978Z,3.18
2019-01-02T16:25:51.952Z,3.24
2019-01-02T16:26:51.943Z,3.20
2019-01-02T16:27:51.929Z,3.20
2019-01-02T16:28:51.940Z,3.16
2019-01-02T16:29:51.907Z,3.13
2019-01-02T16:30:51.896Z,3.02
2019-01-02T16:31:51.905Z,3.12
2019-01-02T16:32:51.873Z,3.10
2019-01-02T16:33:51.992Z,2.94
2019-01-02T16:34:51.850Z,2.94
2019-01-02T16:35:51.835Z,2.84
2019-01-02T16:36:51.824Z,2.81
2019-01-02T16:37:51.859Z,2.85
2019-01-02T16:38:51.897Z,2.85
2019-01-02T16:39:51.792Z,2.88
2019-01-02T16:40:51.826Z,2.82
2019-01-02T16:41:51.769Z,2.79
2019-01-02T16:42:51.756Z,2.82
2019-01-02T16:43:51.814Z,2.79
2019-01-02T16:44:51.747Z,2.77
2019-01-02T16:45:51.722Z,2.81
2019-01-02T16:46:51.713Z,2.77
2019-01-02T16:47:51.706Z,2.73
2019-01-02T16:48:51.706Z,2.64
2019-01-02T16:49:51.679Z,2.61
2019-01-02T16:50:51.667Z,2.52
2019-01-02T16:51:51.693Z,2.51
2019-01-02T16:52:51.683Z,2.46
2019-01-02T16:53:51.662Z,2.51
2019-01-02T16:54:51.619Z,2.38
2019-01-02T16:55:51.626Z,2.35
2019-01-02T16:56:51.612Z,2.46
2019-01-02T16:57:51.585Z,2.37
2019-01-02T16:58:51.601Z,2.30
2019-01-02T16:59:51.567Z,2.33
2019-01-02T17:00:51.552Z,2.33
2019-01-02T17:01:51.538Z,2.33
2019-01-02T17:02:51.526Z,2.22
2019-01-02T17:03:51.543Z,2.28
2019-01-02T17:04:51.506Z,2.37
2019-01-02T17:05:51.608Z,2.31
2019-01-02T17:06:51.480Z,2.31
2019-01-02T17:07:51.486Z,2.27
2019-01-02T17:08:51.479Z,2.28
2019-01-02T17:09:51.452Z,2.26
2019-01-02T17:10:51.436Z,2.26
2019-01-02T17:11:51.424Z,2.26
2019-01-02T17:12:51.428Z,2.28
2019-01-02T17:13:51.403Z,2.31
2019-01-02T17:14:51.408Z,2.26
2019-01-02T17:15:51.378Z,2.27
2019-01-02T17:16:51.428Z,2.19
2019-01-02T17:17:51.359Z,2.13
2019-01-02T17:18:51.346Z,2.06
2019-01-02T17:19:51.376Z,2.13
2019-01-02T17:20:51.344Z,2.17
2019-01-02T17:21:51.312Z,2.17
2019-01-02T17:22:51.302Z,2.17
2019-01-02T17:23:51.307Z,2.28
2019-01-02T17:24:51.293Z,2.26
2019-01-02T17:25:51.289Z,2.28
2019-01-02T17:26:51.261Z,2.23
2019-01-02T17:27:51.246Z,2.26
2019-01-02T17:28:51.240Z,2.26
2019-01-02T17:29:51.224Z,2.28
2019-01-02T17:30:51.226Z,2.31
2019-01-02T17:31:51.197Z,2.35
2019-01-02T17:32:51.220Z,2.28
2019-01-02T17:33:51.174Z,2.27
2019-01-02T17:34:51.162Z,2.17
2019-01-02T17:35:51.178Z,2.08
2019-01-02T17:36:51.147Z,2.13
2019-01-02T17:37:51.132Z,1.94
2019-01-02T17:38:51.118Z,1.98
2019-01-02T17:39:51.106Z,1.90
2019-01-02T17:40:51.096Z,1.85
2019-01-02T17:41:51.104Z,2.01
2019-01-02T17:42:51.073Z,1.85
2019-01-02T17:43:51.065Z,1.78
2019-01-02T17:44:51.054Z,1.65
2019-01-02T17:45:51.051Z,1.78
2019-01-02T17:46:51.045Z,1.73
2019-01-02T17:47:51.034Z,1.72
2019-01-02T17:48:51.041Z,1.78
2019-01-02T17:49:50.995Z,1.71
2019-01-02T17:50:50.987Z,1.76
2019-01-02T17:51:50.991Z,1.76
2019-01-02T17:52:50.961Z,1.62
2019-01-02T17:53:50.967Z,1.72
2019-01-02T17:54:50.941Z,1.73
2019-01-02T17:55:50.930Z,1.65
2019-01-02T17:56:50.936Z,1.69
2019-01-02T17:57:50.904Z,1.62
2019-01-02T17:58:50.896Z,1.58
2019-01-02T17:59:51.385Z,1.54
2019-01-02T18:00:50.875Z,1.58
2019-01-02T18:01:50.882Z,1.51
2019-01-02T18:02:50.849Z,1.46
2019-01-02T18:03:50.844Z,1.52
2019-01-02T18:04:50.824Z,1.51
2019-01-02T18:05:50.835Z,1.42
2019-01-02T18:06:50.822Z,1.44
2019-01-02T18:07:50.796Z,1.44
2019-01-02T18:08:50.781Z,1.47
2019-01-02T18:09:50.767Z,1.43
2019-01-02T18:10:50.756Z,1.50
2019-01-02T18:11:50.750Z,1.44
2019-01-02T18:12:50.753Z,1.43
2019-01-02T18:13:50.739Z,1.51
2019-01-02T18:14:50.713Z,1.51
2019-01-02T18:15:50.710Z,1.52
2019-01-02T18:16:50.721Z,1.36
2019-01-02T18:17:50.696Z,1.37
2019-01-02T18:18:50.667Z,1.33
2019-01-02T18:19:50.666Z,1.34
2019-01-02T18:20:50.647Z,1.40
2019-01-02T18:21:50.653Z,1.28
2019-01-02T18:22:50.623Z,1.26
2019-01-02T18:23:50.612Z,1.25
2019-01-02T18:24:50.600Z,1.28
2019-01-02T18:25:50.591Z,1.25
2019-01-02T18:26:50.609Z,1.19
2019-01-02T18:27:50.566Z,1.22
2019-01-02T18:28:50.556Z,1.19
2019-01-02T18:29:50.545Z,1.21
2019-01-02T18:30:50.543Z,1.16
2019-01-02T18:31:50.551Z,1.10
2019-01-02T18:32:50.535Z,1.03
2019-01-02T18:33:50.506Z,1.03
2019-01-02T18:34:50.491Z,0.94
2019-01-02T18:35:50.487Z,0.83
2019-01-02T18:36:50.464Z,0.83
2019-01-02T18:37:50.483Z,0.83
2019-01-02T18:38:50.442Z,0.92
2019-01-02T18:39:50.430Z,0.71
2019-01-02T18:40:50.432Z,0.78
2019-01-02T18:41:50.413Z,0.78
2019-01-02T18:42:50.443Z,0.75
2019-01-02T18:43:50.414Z,0.80
2019-01-02T18:44:50.376Z,0.71
2019-01-02T18:45:50.366Z,0.67
2019-01-02T18:46:50.353Z,0.67
2019-01-02T18:47:50.349Z,0.68
2019-01-02T18:48:50.366Z,0.68
2019-01-02T18:49:50.319Z,0.68
2019-01-02T18:50:50.307Z,0.68
2019-01-02T18:51:50.317Z,0.68
2019-01-02T18:52:50.287Z,0.65
2019-01-02T18:53:50.295Z,0.64
2019-01-02T18:54:50.269Z,0.62
2019-01-02T18:55:50.251Z,0.51
2019-01-02T18:56:50.240Z,0.42
2019-01-02T18:57:50.229Z,0.45
2019-01-02T18:58:50.235Z,0.38
2019-01-02T18:59:50.210Z,0.36
2019-01-02T19:00:50.195Z,0.38
2019-01-02T19:01:50.182Z,0.39
2019-01-02T19:02:50.173Z,0.33
2019-01-02T19:03:50.178Z,0.38
2019-01-02T19:04:50.149Z,0.31
2019-01-02T19:05:50.140Z,0.34
2019-01-02T19:06:50.133Z,0.25
2019-01-02T19:07:50.118Z,0.33
2019-01-02T19:08:50.125Z,0.27
2019-01-02T19:09:50.094Z,0.25
2019-01-02T19:10:50.082Z,0.33
2019-01-02T19:11:50.069Z,0.31
2019-01-02T19:12:50.061Z,0.25
2019-01-02T19:13:50.074Z,0.27
2019-01-02T19:14:50.055Z,0.16
2019-01-02T19:15:50.024Z,0.18
2019-01-02T19:16:50.024Z,0.27
2019-01-02T19:17:50.015Z,0.07
2019-01-02T19:18:49.996Z,0.12
2019-01-02T19:19:50.002Z,0.13
2019-01-02T19:20:49.969Z,0.13
2019-01-02T19:21:49.964Z,0.13
2019-01-02T19:22:50.027Z,0.18
2019-01-02T19:23:49.938Z,0.07
2019-01-02T19:24:49.949Z,0.13
2019-01-02T19:25:49.915Z,0.07
2019-01-02T19:26:49.903Z,0.02
2019-01-02T19:27:49.898Z,0.07
2019-01-02T19:28:49.884Z,0.20
2019-01-02T19:29:49.890Z,0.13
2019-01-02T19:30:49.860Z,0.12
2019-01-02T19:31:49.874Z,0.12
2019-01-02T19:32:49.864Z,0.16
2019-01-02T19:33:49.826Z,0.25
2019-01-02T19:34:49.836Z,0.27
2019-01-02T19:35:49.807Z,0.25
2019-01-02T19:36:49.799Z,0.30
2019-01-02T19:37:49.795Z,0.28
2019-01-02T19:38:49.785Z,0.34
2019-01-02T19:39:49.779Z,0.30
2019-01-02T19:40:49.750Z,0.33
2019-01-02T19:41:49.735Z,0.33
2019-01-02T19:42:49.738Z,0.39
2019-01-02T19:43:49.711Z,0.52
2019-01-02T19:44:49.719Z,0.53
2019-01-02T19:45:49.698Z,0.53
2019-01-02T19:46:49.685Z,0.60
2019-01-02T19:47:49.684Z,0.62
2019-01-02T19:48:49.654Z,0.58
2019-01-02T19:49:49.665Z,0.65
2019-01-02T19:50:49.636Z,0.72
2019-01-02T19:51:49.622Z,0.78
2019-01-02T19:52:49.620Z,0.83
2019-01-02T19:53:49.611Z,0.76
2019-01-02T19:54:49.610Z,0.78
2019-01-02T19:55:49.580Z,0.86
2019-01-02T19:56:49.565Z,0.79
2019-01-02T19:57:49.568Z,0.85
2019-01-02T19:58:49.551Z,0.89
2019-01-02T19:59:49.554Z,0.89
2019-01-02T20:00:49.529Z,0.98
2019-01-02T20:01:49.509Z,1.03
2019-01-02T20:02:49.499Z,1.03
2019-01-02T20:03:49.487Z,1.01
2019-01-02T20:04:49.499Z,0.98
2019-01-02T20:05:49.468Z,1.12
2019-01-02T20:06:49.454Z,1.01
2019-01-02T20:07:49.443Z,1.06
2019-01-02T20:08:49.436Z,1.10
2019-01-02T20:09:49.441Z,1.07
2019-01-02T20:10:49.417Z,1.18
2019-01-02T20:11:49.399Z,1.21
2019-01-02T20:12:49.387Z,1.15
2019-01-02T20:13:49.381Z,1.18
2019-01-02T20:14:49.384Z,1.18
2019-01-02T20:15:49.377Z,1.21
2019-01-02T20:16:49.343Z,1.24
2019-01-02T20:17:49.331Z,1.18
2019-01-02T20:18:49.338Z,1.21
2019-01-02T20:19:49.325Z,1.18
2019-01-02T20:20:49.303Z,1.22
2019-01-02T20:21:49.469Z,1.22
2019-01-02T20:22:49.274Z,1.19
2019-01-02T20:23:49.262Z,1.15
2019-01-02T20:24:56.308Z,1.04
2019-01-02T20:25:49.239Z,1.03
2019-01-02T20:26:49.238Z,0.94
2019-01-02T20:27:49.219Z,1.00
2019-01-02T20:28:49.207Z,0.90
2019-01-02T20:29:49.236Z,0.96
2019-01-02T20:30:49.183Z,0.76
2019-01-02T20:31:49.178Z,0.79
2019-01-02T20:32:49.169Z,0.79
2019-01-02T20:33:49.158Z,0.67
2019-01-02T20:34:49.139Z,0.64
2019-01-02T20:35:49.152Z,0.51